createdAt,value
2022-11-26T00:00:58.382Z,3.50
2022-11-26T00:03:26.530Z,3.50
2022-11-26T00:05:58.046Z,3.60
2022-11-26T00:08:30.823Z,3.50
2022-11-26T00:10:59.130Z,3.50
2022-11-26T00:13:31.609Z,3.60
2022-11-26T00:15:59.755Z,3.50
2022-11-26T00:18:27.713Z,3.40
2022-11-26T00:21:00.638Z,3.60
2022-11-26T00:23:29.805Z,3.60
2022-11-26T00:25:59.655Z,3.40
2022-11-26T00:28:31.217Z,3.40
2022-11-26T00:31:01.510Z,3.30
2022-11-26T00:33:30.514Z,3.30
2022-11-26T00:36:01.742Z,3.30
2022-11-26T00:38:31.681Z,3.20
2022-11-26T00:41:00.495Z,3.30
2022-11-26T00:43:29.967Z,3.30
2022-11-26T00:45:58.020Z,3.30
2022-11-26T00:48:26.125Z,3.30
2022-11-26T00:50:54.473Z,3.30
2022-11-26T00:53:26.013Z,3.30
2022-11-26T00:55:54.098Z,3.40
2022-11-26T00:58:27.134Z,3.40
2022-11-26T01:00:59.049Z,3.40
2022-11-26T01:03:27.649Z,3.40
2022-11-26T01:05:58.236Z,3.30
2022-11-26T01:08:32.315Z,3.40
2022-11-26T01:11:01.256Z,3.40
2022-11-26T01:13:30.411Z,3.40
2022-11-26T01:16:01.763Z,3.50
2022-11-26T01:18:33.226Z,3.50
2022-11-26T01:21:01.443Z,3.50
2022-11-26T01:23:29.436Z,3.50
2022-11-26T01:25:57.500Z,3.50
2022-11-26T01:28:25.520Z,3.50
2022-11-26T01:30:53.619Z,3.50
2022-11-26T01:33:22.947Z,3.50
2022-11-26T01:35:50.987Z,3.60
2022-11-26T01:38:19.125Z,3.50
2022-11-26T01:40:59.943Z,3.50
2022-11-26T01:43:30.835Z,3.60
2022-11-26T01:45:58.909Z,3.50
2022-11-26T01:48:31.701Z,3.40
2022-11-26T01:51:02.903Z,3.10
2022-11-26T01:53:44.889Z,3.20
2022-11-26T01:56:32.288Z,3.10
2022-11-26T01:59:07.100Z,3.20
2022-11-26T02:01:36.003Z,3.20
2022-11-26T02:04:13.060Z,3.20
2022-11-26T02:06:42.620Z,3.20
2022-11-26T02:09:12.154Z,3.30
2022-11-26T02:11:41.574Z,3.30
2022-11-26T02:14:14.388Z,3.30
2022-11-26T02:17:03.022Z,3.40
2022-11-26T02:19:59.064Z,3.50
2022-11-26T02:22:59.479Z,3.40
2022-11-26T02:25:45.355Z,3.50
2022-11-26T02:28:42.554Z,3.50
2022-11-26T02:31:17.746Z,3.50
2022-11-26T02:33:52.423Z,3.60
2022-11-26T02:36:26.179Z,3.60
2022-11-26T02:38:54.497Z,3.50
2022-11-26T02:41:22.561Z,3.40
2022-11-26T02:43:50.788Z,3.50
2022-11-26T02:46:21.358Z,3.50
2022-11-26T02:48:53.069Z,3.50
2022-11-26T02:51:28.384Z,3.40
2022-11-26T02:54:00.380Z,4.60
2022-11-26T02:56:30.291Z,3.30
2022-11-26T02:58:59.543Z,3.40
2022-11-26T03:01:32.847Z,3.50
2022-11-26T03:04:08.624Z,3.50
2022-11-26T03:06:37.383Z,3.00
2022-11-26T03:09:05.533Z,3.40
2022-11-26T03:11:34.391Z,3.20
2022-11-26T03:14:02.660Z,3.30
2022-11-26T03:16:32.164Z,3.40
2022-11-26T03:19:00.296Z,3.30
2022-11-26T03:21:28.738Z,3.30
2022-11-26T03:23:56.794Z,3.20
2022-11-26T03:26:24.925Z,3.20
2022-11-26T03:28:52.941Z,3.30
2022-11-26T03:31:21.163Z,3.40
2022-11-26T03:33:50.549Z,3.30
2022-11-26T03:36:18.693Z,3.20
2022-11-26T03:38:47.051Z,3.20
2022-11-26T03:41:15.237Z,3.30
2022-11-26T03:43:43.491Z,3.20
2022-11-26T03:46:11.608Z,3.20
2022-11-26T03:48:39.713Z,3.10
2022-11-26T03:51:09.431Z,3.10
2022-11-26T03:53:37.505Z,3.20
2022-11-26T03:56:06.282Z,3.20
2022-11-26T03:58:34.339Z,3.10
2022-11-26T04:01:07.937Z,3.20
2022-11-26T04:03:36.128Z,3.40
2022-11-26T04:06:04.640Z,3.10
2022-11-26T04:08:34.363Z,3.00
2022-11-26T04:11:02.388Z,2.80
2022-11-26T04:13:30.514Z,2.90
2022-11-26T04:15:58.535Z,3.10
2022-11-26T04:18:26.860Z,3.00
2022-11-26T04:20:54.876Z,3.30
2022-11-26T04:23:23.015Z,3.30
2022-11-26T04:25:52.536Z,3.20
2022-11-26T04:28:20.611Z,3.30
2022-11-26T04:30:48.645Z,3.20
2022-11-26T04:33:16.763Z,3.40
2022-11-26T04:35:44.900Z,3.30
2022-11-26T04:38:12.966Z,3.30
2022-11-26T04:40:41.026Z,3.10
2022-11-26T04:43:10.453Z,3.10
2022-11-26T04:45:38.465Z,3.20
2022-11-26T04:48:07.540Z,3.20
2022-11-26T04:50:35.532Z,3.20
2022-11-26T04:53:03.563Z,3.10
2022-11-26T04:55:31.605Z,3.10
2022-11-26T04:57:59.627Z,2.90
2022-11-26T05:00:29.132Z,2.90
2022-11-26T05:02:57.311Z,2.90
2022-11-26T05:05:25.353Z,3.00
2022-11-26T05:07:53.550Z,2.90
2022-11-26T05:10:21.732Z,3.00
2022-11-26T05:12:49.892Z,2.90
2022-11-26T05:15:18.040Z,2.70
2022-11-26T05:17:47.609Z,2.70
2022-11-26T05:20:15.973Z,2.90
2022-11-26T05:22:44.400Z,2.90
2022-11-26T05:25:12.479Z,2.90
2022-11-26T05:27:40.635Z,3.20
2022-11-26T05:30:09.875Z,3.10
2022-11-26T05:32:37.956Z,2.80
2022-11-26T05:35:08.110Z,2.80
2022-11-26T05:37:36.251Z,2.80
2022-11-26T05:40:05.097Z,2.70
2022-11-26T05:42:33.261Z,2.60
2022-11-26T05:45:01.322Z,2.60
2022-11-26T05:47:29.445Z,2.60
2022-11-26T05:49:57.590Z,2.60
2022-11-26T05:52:27.162Z,2.60
2022-11-26T05:54:55.364Z,2.60
2022-11-26T05:57:23.440Z,2.60
2022-11-26T05:59:51.450Z,2.60
2022-11-26T06:02:19.932Z,2.60
2022-11-26T06:04:47.990Z,2.60
2022-11-26T06:07:16.180Z,2.60
2022-11-26T06:09:45.774Z,2.80
2022-11-26T06:12:13.844Z,2.70
2022-11-26T06:14:43.510Z,2.50
2022-11-26T06:17:11.922Z,2.40
2022-11-26T06:19:39.941Z,2.30
2022-11-26T06:22:08.560Z,2.40
2022-11-26T06:24:36.891Z,2.30
2022-11-26T06:27:06.579Z,2.20
2022-11-26T06:29:34.705Z,2.30
2022-11-26T06:32:02.952Z,2.50
2022-11-26T06:34:30.934Z,2.40
2022-11-26T06:36:59.064Z,2.40
2022-11-26T06:39:27.205Z,2.40
2022-11-26T06:41:55.293Z,2.30
2022-11-26T06:44:24.714Z,2.40
2022-11-26T06:46:52.896Z,2.40
2022-11-26T06:49:20.934Z,2.30
2022-11-26T06:51:49.006Z,2.30
2022-11-26T06:54:17.008Z,2.30
2022-11-26T06:56:45.097Z,2.30
2022-11-26T06:59:13.478Z,2.40
2022-11-26T07:01:43.222Z,2.50
2022-11-26T07:04:15.407Z,2.60
2022-11-26T07:06:47.919Z,2.40
2022-11-26T07:09:16.575Z,2.30
2022-11-26T07:11:44.670Z,2.20
2022-11-26T07:14:12.869Z,2.20
2022-11-26T07:16:42.229Z,2.10
2022-11-26T07:19:14.877Z,2.10
2022-11-26T07:21:43.260Z,2.10
2022-11-26T07:24:11.464Z,2.20
2022-11-26T07:26:39.515Z,2.20
2022-11-26T07:29:07.781Z,2.20
2022-11-26T07:31:36.374Z,2.10
2022-11-26T07:34:05.943Z,2.30
2022-11-26T07:36:34.031Z,2.20
2022-11-26T07:39:04.219Z,2.10
2022-11-26T07:41:32.607Z,2.20
2022-11-26T07:44:00.587Z,2.00
2022-11-26T07:46:28.799Z,2.20
2022-11-26T07:48:57.446Z,2.10
2022-11-26T07:51:28.829Z,2.10
2022-11-26T07:53:58.143Z,2.00
2022-11-26T07:56:27.297Z,1.90
2022-11-26T07:58:55.557Z,1.90
2022-11-26T08:01:27.202Z,2.10
2022-11-26T08:03:55.683Z,2.10
2022-11-26T08:06:26.812Z,2.00
2022-11-26T08:08:54.960Z,2.00
2022-11-26T08:11:24.862Z,2.00
2022-11-26T08:13:55.168Z,1.80
2022-11-26T08:16:23.324Z,1.80
2022-11-26T08:18:54.750Z,1.80
2022-11-26T08:21:23.247Z,1.90
2022-11-26T08:23:53.388Z,2.00
2022-11-26T08:26:27.451Z,1.60
2022-11-26T08:28:59.868Z,1.70
2022-11-26T08:31:28.426Z,1.80
2022-11-26T08:33:58.998Z,1.70
2022-11-26T08:36:27.475Z,1.70
2022-11-26T08:38:57.293Z,1.70
2022-11-26T08:41:25.675Z,1.80
2022-11-26T08:44:09.079Z,1.80
2022-11-26T08:46:38.344Z,1.80
2022-11-26T08:49:07.465Z,1.70
2022-11-26T08:51:35.588Z,1.70
2022-11-26T08:54:05.487Z,1.70
2022-11-26T08:56:34.206Z,1.60
2022-11-26T08:59:02.212Z,1.60
2022-11-26T09:01:33.338Z,1.60
2022-11-26T09:04:03.384Z,1.80
2022-11-26T09:06:33.081Z,1.90
2022-11-26T09:09:14.875Z,2.30
2022-11-26T09:11:47.712Z,2.10
2022-11-26T09:14:17.721Z,2.20
2022-11-26T09:16:46.429Z,1.90
2022-11-26T09:19:15.984Z,1.90
2022-11-26T09:21:44.036Z,2.60
2022-11-26T09:24:12.664Z,2.30
2022-11-26T09:26:41.254Z,2.20
2022-11-26T09:29:13.645Z,2.40
2022-11-26T09:32:00.667Z,2.20
2022-11-26T09:34:30.091Z,2.10
2022-11-26T09:36:58.071Z,2.10
2022-11-26T09:39:26.156Z,2.10
2022-11-26T09:42:01.790Z,1.80
2022-11-26T09:44:56.820Z,2.00
2022-11-26T09:47:28.189Z,1.80
2022-11-26T09:50:05.136Z,1.80
2022-11-26T09:52:40.484Z,2.10
2022-11-26T09:55:16.487Z,2.10
2022-11-26T09:57:49.521Z,2.00
2022-11-26T10:00:24.569Z,1.80
2022-11-26T10:02:56.672Z,1.90
2022-11-26T10:05:37.007Z,1.80
2022-11-26T10:08:16.727Z,2.10
2022-11-26T10:10:53.080Z,2.10
2022-11-26T10:13:29.262Z,2.10
2022-11-26T10:16:08.914Z,2.00
2022-11-26T10:18:46.368Z,2.10
2022-11-26T10:21:27.410Z,1.90
2022-11-26T10:24:15.969Z,2.00
2022-11-26T10:26:44.631Z,2.20
2022-11-26T10:29:22.258Z,2.30
2022-11-26T10:31:57.978Z,2.20
2022-11-26T10:34:37.447Z,2.60
2022-11-26T10:37:07.565Z,2.50
2022-11-26T10:39:39.529Z,2.40
2022-11-26T10:42:16.482Z,2.60
2022-11-26T10:44:44.673Z,2.40
2022-11-26T10:47:28.167Z,2.30
2022-11-26T10:49:59.709Z,2.10
2022-11-26T10:52:30.413Z,1.90
2022-11-26T10:55:24.939Z,2.20
2022-11-26T10:57:56.906Z,2.20
2022-11-26T11:00:32.552Z,2.10
2022-11-26T11:03:04.790Z,2.10
2022-11-26T11:05:34.608Z,2.20
2022-11-26T11:08:03.308Z,2.40
2022-11-26T11:10:31.553Z,2.40
2022-11-26T11:13:15.038Z,2.00
2022-11-26T11:15:43.675Z,2.10
2022-11-26T11:18:20.735Z,2.20
2022-11-26T11:20:57.854Z,2.00
2022-11-26T11:23:52.313Z,2.00
2022-11-26T11:26:21.003Z,1.90
2022-11-26T11:28:51.678Z,1.90
2022-11-26T11:31:22.064Z,2.20
2022-11-26T11:33:52.944Z,2.10
2022-11-26T11:36:28.966Z,1.90
2022-11-26T11:39:00.514Z,1.90
2022-11-26T11:41:33.530Z,1.90
2022-11-26T11:44:06.975Z,2.00
2022-11-26T11:47:01.560Z,2.00
2022-11-26T11:49:45.181Z,2.10
2022-11-26T11:52:26.303Z,2.10
2022-11-26T11:55:02.868Z,2.10
2022-11-26T11:57:52.787Z,1.80
2022-11-26T12:00:38.301Z,1.80
2022-11-26T12:03:22.287Z,2.00
2022-11-26T12:06:09.104Z,2.00
2022-11-26T12:08:48.167Z,2.00
2022-11-26T12:11:45.007Z,2.00
2022-11-26T12:14:18.962Z,1.80
2022-11-26T12:16:50.603Z,1.90
2022-11-26T12:19:28.583Z,2.00
2022-11-26T12:22:04.360Z,1.80
2022-11-26T12:24:40.481Z,1.80
2022-11-26T12:27:16.082Z,1.70
2022-11-26T12:29:48.387Z,1.70
2022-11-26T12:32:20.839Z,1.80
2022-11-26T12:34:52.730Z,1.70
2022-11-26T12:37:28.134Z,1.80
2022-11-26T12:40:01.364Z,1.80
2022-11-26T12:42:37.171Z,1.70
2022-11-26T12:45:18.671Z,1.80
2022-11-26T12:47:54.933Z,1.70
2022-11-26T12:50:35.064Z,1.80
2022-11-26T12:53:15.075Z,1.80
2022-11-26T12:55:46.881Z,1.90
2022-11-26T12:58:19.189Z,1.90
2022-11-26T13:00:50.356Z,1.90
2022-11-26T13:03:22.824Z,1.80
2022-11-26T13:06:03.413Z,1.70
2022-11-26T13:08:47.870Z,1.80
2022-11-26T13:11:26.318Z,1.80
2022-11-26T13:13:59.952Z,1.70
2022-11-26T13:16:35.927Z,1.70
2022-11-26T13:19:09.172Z,1.70
2022-11-26T13:21:53.007Z,1.60
2022-11-26T13:24:38.308Z,1.70
2022-11-26T13:27:35.531Z,1.60
2022-11-26T13:30:16.566Z,1.70
2022-11-26T13:33:31.224Z,1.70
2022-11-26T13:36:32.376Z,1.70
2022-11-26T13:39:12.482Z,1.70
2022-11-26T13:42:04.108Z,1.70
2022-11-26T13:45:02.933Z,1.60
2022-11-26T13:47:35.487Z,1.80
2022-11-26T13:50:11.212Z,1.70
2022-11-26T13:52:44.178Z,1.80
2022-11-26T13:55:17.998Z,1.70
2022-11-26T13:57:52.198Z,1.70
2022-11-26T14:00:26.993Z,1.70
2022-11-26T14:02:57.212Z,1.80
2022-11-26T14:05:46.675Z,1.70
2022-11-26T14:08:35.322Z,1.70
2022-11-26T14:11:05.144Z,1.70
2022-11-26T14:13:34.743Z,1.60
2022-11-26T14:16:06.459Z,2.80
2022-11-26T14:19:03.009Z,1.60
2022-11-26T14:21:31.711Z,1.60
2022-11-26T14:24:02.196Z,1.60
2022-11-26T14:26:35.049Z,2.70
2022-11-26T14:29:13.202Z,1.50
2022-11-26T14:31:48.522Z,1.60
2022-11-26T14:34:22.666Z,1.50
2022-11-26T14:36:54.340Z,1.60
2022-11-26T14:39:22.735Z,1.60
2022-11-26T14:42:00.367Z,1.60
2022-11-26T14:44:34.247Z,1.40
2022-11-26T14:47:10.984Z,1.20
2022-11-26T14:49:41.054Z,1.30
2022-11-26T14:52:19.041Z,1.20
2022-11-26T14:54:50.562Z,1.20
2022-11-26T14:57:23.046Z,1.20
2022-11-26T15:00:00.073Z,1.20
2022-11-26T15:02:30.243Z,1.20
2022-11-26T15:05:00.231Z,1.20
2022-11-26T15:07:30.135Z,1.30
2022-11-26T15:10:03.313Z,1.30
2022-11-26T15:12:31.628Z,1.20
2022-11-26T15:15:02.879Z,1.20
2022-11-26T15:17:33.548Z,1.20
2022-11-26T15:20:07.520Z,1.30
2022-11-26T15:22:39.630Z,1.20
2022-11-26T15:25:17.424Z,1.20
2022-11-26T15:27:59.177Z,1.20
2022-11-26T15:30:30.891Z,1.20
2022-11-26T15:33:01.679Z,1.20
2022-11-26T15:35:30.847Z,1.20
2022-11-26T15:37:59.388Z,1.20
2022-11-26T15:40:34.239Z,1.20
2022-11-26T15:43:05.183Z,1.20
2022-11-26T15:45:38.783Z,1.20
2022-11-26T15:48:27.163Z,1.20
2022-11-26T15:51:01.458Z,1.20
2022-11-26T15:53:33.449Z,1.10
2022-11-26T15:56:02.639Z,1.20
2022-11-26T15:58:35.093Z,1.20
2022-11-26T16:01:13.758Z,1.20
2022-11-26T16:03:45.465Z,1.30
2022-11-26T16:06:31.209Z,1.20
2022-11-26T16:09:07.916Z,1.10
2022-11-26T16:11:37.797Z,1.10
2022-11-26T16:14:29.763Z,1.10
2022-11-26T16:17:06.528Z,1.20
2022-11-26T16:19:37.621Z,1.10
2022-11-26T16:22:07.585Z,1.20
2022-11-26T16:24:39.046Z,1.20
2022-11-26T16:27:24.804Z,1.30
2022-11-26T16:29:52.903Z,1.20
2022-11-26T16:32:22.812Z,1.20
2022-11-26T16:34:51.183Z,1.30
2022-11-26T16:37:22.113Z,1.10
2022-11-26T16:39:51.702Z,1.20
2022-11-26T16:42:22.210Z,1.20
2022-11-26T16:44:50.809Z,1.20
2022-11-26T16:47:24.215Z,1.20
2022-11-26T16:49:52.815Z,1.10
2022-11-26T16:52:21.668Z,1.10
2022-11-26T16:54:50.157Z,1.10
2022-11-26T16:57:20.704Z,1.10
2022-11-26T16:59:52.836Z,1.20
2022-11-26T17:02:24.293Z,1.20
2022-11-26T17:04:52.556Z,1.10
2022-11-26T17:07:25.169Z,1.20
2022-11-26T17:09:54.535Z,1.10
2022-11-26T17:12:27.665Z,1.20
2022-11-26T17:14:55.773Z,1.10
2022-11-26T17:17:29.484Z,1.00
2022-11-26T17:19:57.987Z,1.10
2022-11-26T17:22:26.358Z,1.20
2022-11-26T17:24:54.533Z,1.10
2022-11-26T17:27:23.518Z,1.10
2022-11-26T17:29:52.796Z,1.20
2022-11-26T17:32:21.097Z,1.10
2022-11-26T17:34:50.591Z,1.10
2022-11-26T17:37:21.331Z,1.20
2022-11-26T17:39:49.528Z,1.10
2022-11-26T17:42:19.819Z,1.10
2022-11-26T17:44:48.290Z,1.10
2022-11-26T17:47:18.441Z,1.00
2022-11-26T17:49:47.287Z,1.00
2022-11-26T17:52:17.345Z,1.00
2022-11-26T17:54:46.237Z,1.00
2022-11-26T17:57:15.735Z,1.00
2022-11-26T17:59:44.610Z,0.90
2022-11-26T18:02:13.235Z,1.00
2022-11-26T18:04:41.629Z,1.00
2022-11-26T18:07:14.113Z,1.00
2022-11-26T18:09:43.664Z,0.90
2022-11-26T18:12:23.167Z,0.90
2022-11-26T18:14:53.107Z,1.00
2022-11-26T18:17:21.614Z,0.90
2022-11-26T18:19:50.191Z,1.00
2022-11-26T18:22:20.396Z,0.90
2022-11-26T18:24:57.008Z,1.00
2022-11-26T18:27:28.692Z,0.90
2022-11-26T18:29:56.925Z,1.00
2022-11-26T18:32:25.019Z,1.00
2022-11-26T18:34:54.018Z,0.90
2022-11-26T18:37:24.672Z,0.90
2022-11-26T18:39:54.808Z,0.90
2022-11-26T18:42:36.722Z,1.00
2022-11-26T18:45:07.321Z,0.90
2022-11-26T18:47:35.380Z,0.90
2022-11-26T18:50:06.509Z,0.90
2022-11-26T18:52:34.892Z,1.00
2022-11-26T18:55:08.168Z,1.00
2022-11-26T18:57:36.676Z,1.00
2022-11-26T19:00:05.930Z,1.00
2022-11-26T19:02:37.429Z,0.90
2022-11-26T19:05:06.511Z,0.90
2022-11-26T19:07:34.979Z,0.90
2022-11-26T19:10:06.133Z,1.00
2022-11-26T19:12:36.214Z,0.90
2022-11-26T19:15:04.946Z,0.90
2022-11-26T19:17:33.139Z,1.00
2022-11-26T19:20:01.106Z,0.90
2022-11-26T19:22:29.305Z,0.80
2022-11-26T19:24:57.447Z,1.00
2022-11-26T19:27:28.212Z,1.00
2022-11-26T19:29:57.990Z,1.00
2022-11-26T19:32:26.348Z,1.00
2022-11-26T19:34:55.386Z,1.00
2022-11-26T19:37:23.714Z,1.10
2022-11-26T19:39:54.399Z,1.10
2022-11-26T19:42:22.551Z,1.10
2022-11-26T19:44:52.193Z,1.10
2022-11-26T19:47:23.381Z,1.10
2022-11-26T19:49:51.657Z,1.10
2022-11-26T19:52:19.742Z,1.00
2022-11-26T19:54:48.067Z,1.00
2022-11-26T19:57:18.288Z,1.00
2022-11-26T19:59:46.526Z,1.00
2022-11-26T20:02:16.027Z,1.10
2022-11-26T20:04:49.903Z,1.10
2022-11-26T20:07:19.012Z,1.10
2022-11-26T20:09:47.267Z,1.00
2022-11-26T20:12:15.362Z,1.10
2022-11-26T20:14:44.567Z,1.10
2022-11-26T20:17:12.704Z,1.10
2022-11-26T20:19:44.471Z,1.20
2022-11-26T20:22:20.244Z,1.10
2022-11-26T20:24:48.366Z,1.10
2022-11-26T20:27:16.447Z,1.20
2022-11-26T20:29:46.536Z,1.10
2022-11-26T20:32:15.951Z,1.10
2022-11-26T20:34:47.324Z,1.20
2022-11-26T20:37:15.627Z,1.10
2022-11-26T20:39:44.712Z,1.20
2022-11-26T20:42:15.498Z,1.10
2022-11-26T20:44:58.973Z,1.10
2022-11-26T20:47:33.930Z,1.10
2022-11-26T20:50:10.509Z,1.10
2022-11-26T20:52:38.801Z,1.10
2022-11-26T20:55:09.201Z,1.10
